createdAt,value
2023-05-03T00:01:09.353Z,17.77
2023-05-03T00:03:37.818Z,16.70
2023-05-03T00:06:14.302Z,14.25
2023-05-03T00:08:41.821Z,17.13
2023-05-03T00:11:08.760Z,16.35
2023-05-03T00:13:36.163Z,14.50
2023-05-03T00:16:02.878Z,15.70
2023-05-03T00:18:30.632Z,15.18
2023-05-03T00:20:58.928Z,15.25
2023-05-03T00:23:26.754Z,15.10
2023-05-03T00:25:57.104Z,15.85
2023-05-03T00:28:24.572Z,13.77
2023-05-03T00:30:52.045Z,15.38
2023-05-03T00:33:19.076Z,17.40
2023-05-03T00:35:45.933Z,15.68
2023-05-03T00:38:14.435Z,15.60
2023-05-03T00:40:41.305Z,16.33
2023-05-03T00:43:10.673Z,13.93
2023-05-03T00:45:37.379Z,16.73
2023-05-03T00:48:04.448Z,17.88
2023-05-03T00:50:31.218Z,12.45
2023-05-03T00:52:58.270Z,14.07
2023-05-03T00:55:26.320Z,15.80
2023-05-03T00:57:53.293Z,16.80
2023-05-03T01:00:20.421Z,14.45
2023-05-03T01:02:47.538Z,14.93
2023-05-03T01:05:15.827Z,15.63
2023-05-03T01:08:01.332Z,14.57
2023-05-03T01:10:33.736Z,15.02
2023-05-03T01:13:28.566Z,16.88
2023-05-03T01:16:26.403Z,11.63
2023-05-03T01:18:54.940Z,15.15
2023-05-03T01:21:22.837Z,15.13
2023-05-03T01:24:09.378Z,13.65
2023-05-03T01:26:36.261Z,14.20
2023-05-03T01:29:04.002Z,17.30
2023-05-03T01:31:37.742Z,13.70
2023-05-03T01:34:16.949Z,13.27
2023-05-03T01:36:44.369Z,13.73
2023-05-03T01:39:16.925Z,15.10
2023-05-03T01:41:43.675Z,14.18
2023-05-03T01:44:10.835Z,16.05
2023-05-03T01:46:44.695Z,12.73
2023-05-03T01:49:11.946Z,12.27
2023-05-03T01:51:38.746Z,14.90
2023-05-03T01:54:06.282Z,14.00
2023-05-03T01:56:34.547Z,15.93
2023-05-03T01:59:01.727Z,15.60
2023-05-03T02:01:28.567Z,14.18
2023-05-03T02:03:55.781Z,16.58
2023-05-03T02:06:22.547Z,16.08
2023-05-03T02:08:49.596Z,16.00
2023-05-03T02:11:16.270Z,15.02
2023-05-03T02:13:43.288Z,13.27
2023-05-03T02:16:10.125Z,15.07
2023-05-03T02:18:37.481Z,16.60
2023-05-03T02:21:04.894Z,13.82
2023-05-03T02:23:31.914Z,14.07
2023-05-03T02:25:58.684Z,14.70
2023-05-03T02:28:25.700Z,14.23
2023-05-03T02:30:52.441Z,15.35
2023-05-03T02:33:19.618Z,13.63
2023-05-03T02:35:46.367Z,14.23
2023-05-03T02:38:13.488Z,13.95
2023-05-03T02:40:40.220Z,14.60
2023-05-03T02:43:07.440Z,14.18
2023-05-03T02:45:36.505Z,12.93
2023-05-03T02:48:03.913Z,13.25
2023-05-03T02:50:30.691Z,14.02
2023-05-03T02:52:57.726Z,15.40
2023-05-03T02:55:25.152Z,13.48
2023-05-03T02:57:52.181Z,13.38
2023-05-03T03:00:19.163Z,14.32
2023-05-03T03:02:46.568Z,12.98
2023-05-03T03:05:13.437Z,13.00
2023-05-03T03:07:40.510Z,11.38
2023-05-03T03:10:07.862Z,12.70
2023-05-03T03:12:38.064Z,11.77
2023-05-03T03:15:05.408Z,14.13
2023-05-03T03:17:32.586Z,13.32
2023-05-03T03:19:59.553Z,13.15
2023-05-03T03:22:26.740Z,12.00
2023-05-03T03:24:53.546Z,11.55
2023-05-03T03:27:21.625Z,13.35
2023-05-03T03:29:48.367Z,12.52
2023-05-03T03:32:15.550Z,11.73
2023-05-03T03:34:42.294Z,10.73
2023-05-03T03:37:09.367Z,12.13
2023-05-03T03:39:36.197Z,12.65
2023-05-03T03:42:03.301Z,12.70
2023-05-03T03:44:30.027Z,10.80
2023-05-03T03:46:57.048Z,14.27
2023-05-03T03:49:23.814Z,10.75
2023-05-03T03:51:50.870Z,11.43
2023-05-03T03:54:17.544Z,11.43
2023-05-03T03:56:44.576Z,13.25
2023-05-03T03:59:11.267Z,12.73
2023-05-03T04:01:38.423Z,11.73
2023-05-03T04:04:05.329Z,15.15
2023-05-03T04:06:33.190Z,12.55
2023-05-03T04:08:59.888Z,11.13
2023-05-03T04:11:26.904Z,13.82
2023-05-03T04:13:53.647Z,13.50
2023-05-03T04:16:20.731Z,11.35
2023-05-03T04:18:47.490Z,11.75
2023-05-03T04:21:14.563Z,9.68
2023-05-03T04:23:41.316Z,11.90
2023-05-03T04:26:14.453Z,12.23
2023-05-03T04:28:46.851Z,11.20
2023-05-03T04:31:14.732Z,10.40
2023-05-03T04:33:41.494Z,12.02
2023-05-03T04:36:09.206Z,10.02
2023-05-03T04:38:36.125Z,10.98
2023-05-03T04:41:03.223Z,9.93
2023-05-03T04:43:29.899Z,8.88
2023-05-03T04:45:57.129Z,9.77
2023-05-03T04:48:24.221Z,8.27
2023-05-03T04:50:52.372Z,7.60
2023-05-03T04:53:19.162Z,8.30
2023-05-03T04:55:47.529Z,10.48
2023-05-03T04:58:14.201Z,8.25
2023-05-03T05:00:42.001Z,6.95
2023-05-03T05:03:08.958Z,7.32
2023-05-03T05:05:36.040Z,7.85
2023-05-03T05:08:02.829Z,8.02
2023-05-03T05:10:29.840Z,7.53
2023-05-03T05:12:56.553Z,7.70
2023-05-03T05:15:23.691Z,8.88
2023-05-03T05:17:50.568Z,8.35
2023-05-03T05:20:18.919Z,6.47
2023-05-03T05:22:45.993Z,4.65
2023-05-03T05:25:13.162Z,7.13
2023-05-03T05:27:39.919Z,7.22
2023-05-03T05:30:07.683Z,6.95
2023-05-03T05:32:34.536Z,6.00
2023-05-03T05:35:01.632Z,5.45
2023-05-03T05:37:28.624Z,6.93
2023-05-03T05:39:55.795Z,5.78
2023-05-03T05:42:22.519Z,5.55
2023-05-03T05:44:49.592Z,6.57
2023-05-03T05:47:16.408Z,6.15
2023-05-03T05:49:43.758Z,6.07
2023-05-03T05:52:10.549Z,5.95
2023-05-03T05:54:37.706Z,6.72
2023-05-03T05:57:04.400Z,5.97
2023-05-03T05:59:31.572Z,6.78
2023-05-03T06:02:00.250Z,7.28
2023-05-03T06:04:27.418Z,7.80
2023-05-03T06:06:54.441Z,5.93
2023-05-03T06:09:24.602Z,7.05
2023-05-03T06:11:52.117Z,6.80
2023-05-03T06:14:20.736Z,5.47
2023-05-03T06:16:47.676Z,6.85
2023-05-03T06:19:14.801Z,5.65
2023-05-03T06:21:41.500Z,7.72
2023-05-03T06:24:08.841Z,10.35
2023-05-03T06:26:35.850Z,5.65
2023-05-03T06:29:03.291Z,9.95
2023-05-03T06:31:30.235Z,8.60
2023-05-03T06:33:57.358Z,8.02
2023-05-03T06:36:24.108Z,8.85
2023-05-03T06:38:51.091Z,9.23
2023-05-03T06:41:17.848Z,8.43
2023-05-03T06:43:44.920Z,6.00
2023-05-03T06:46:13.139Z,5.70
2023-05-03T06:48:40.230Z,6.32
2023-05-03T06:51:07.204Z,10.10
2023-05-03T06:53:34.222Z,11.23
2023-05-03T06:56:00.953Z,8.77
2023-05-03T06:58:27.956Z,9.25
2023-05-03T07:00:54.715Z,9.48
2023-05-03T07:03:21.865Z,9.20
2023-05-03T07:05:48.965Z,10.68
2023-05-03T07:08:16.100Z,8.60
2023-05-03T07:10:42.866Z,11.70
2023-05-03T07:13:09.902Z,11.57
2023-05-03T07:15:36.635Z,9.57
2023-05-03T07:18:03.876Z,14.82
2023-05-03T07:20:30.753Z,13.15
2023-05-03T07:22:58.340Z,10.10
2023-05-03T07:25:25.261Z,11.18
2023-05-03T07:27:52.509Z,12.00
2023-05-03T07:30:19.241Z,11.32
2023-05-03T07:32:46.299Z,11.80
2023-05-03T07:35:13.026Z,13.05
2023-05-03T07:37:40.151Z,13.18
2023-05-03T07:40:07.517Z,12.02
2023-05-03T07:42:34.547Z,13.32
2023-05-03T07:45:01.559Z,8.02
2023-05-03T07:47:28.619Z,8.07
2023-05-03T07:49:55.459Z,13.23
2023-05-03T07:52:22.749Z,9.88
2023-05-03T07:54:49.533Z,11.02
2023-05-03T07:57:16.601Z,10.70
2023-05-03T07:59:43.481Z,8.23
2023-05-03T08:02:10.721Z,10.13
2023-05-03T08:04:37.714Z,9.43
2023-05-03T08:07:04.941Z,6.63
2023-05-03T08:09:31.686Z,10.13
2023-05-03T08:11:58.726Z,7.20
2023-05-03T08:14:25.816Z,11.27
2023-05-03T08:16:52.827Z,8.15
2023-05-03T08:19:19.663Z,8.43
2023-05-03T08:21:50.022Z,8.38
2023-05-03T08:24:16.804Z,8.65
2023-05-03T08:26:45.426Z,9.25
2023-05-03T08:29:12.232Z,6.68
2023-05-03T08:31:39.818Z,8.25
2023-05-03T08:34:07.993Z,8.82
2023-05-03T08:36:35.843Z,7.68
2023-05-03T08:39:03.900Z,9.48
2023-05-03T08:41:31.223Z,8.00
2023-05-03T08:43:58.694Z,9.25
2023-05-03T08:46:28.514Z,10.20
2023-05-03T08:48:55.578Z,8.25
2023-05-03T08:51:23.303Z,6.72
2023-05-03T08:53:50.398Z,5.60
2023-05-03T08:56:25.852Z,8.52
2023-05-03T08:58:53.357Z,8.50
2023-05-03T09:01:20.836Z,8.00
2023-05-03T09:03:51.910Z,4.88
2023-05-03T09:06:25.957Z,4.32
2023-05-03T09:08:53.255Z,8.50
2023-05-03T09:11:24.188Z,5.30
2023-05-03T09:13:52.428Z,7.07
2023-05-03T09:16:29.642Z,5.10
2023-05-03T09:18:57.780Z,8.00
2023-05-03T09:21:24.819Z,4.57
2023-05-03T09:23:51.773Z,4.60
2023-05-03T09:26:40.926Z,7.20
2023-05-03T09:29:08.309Z,4.93
2023-05-03T09:31:36.444Z,5.88
2023-05-03T09:34:05.048Z,6.45
2023-05-03T09:36:46.745Z,5.65
2023-05-03T09:39:17.337Z,8.68
2023-05-03T09:41:44.348Z,8.60
2023-05-03T09:44:11.280Z,13.25
2023-05-03T09:46:38.358Z,8.07
2023-05-03T09:49:05.323Z,5.40
2023-05-03T09:51:32.543Z,6.20
2023-05-03T09:53:59.374Z,6.47
2023-05-03T09:56:26.886Z,6.00
2023-05-03T09:58:56.798Z,8.65
2023-05-03T10:01:24.360Z,6.35
2023-05-03T10:03:51.697Z,6.10
2023-05-03T10:06:32.018Z,5.05
2023-05-03T10:09:12.301Z,7.38
2023-05-03T10:11:39.470Z,5.95
2023-05-03T10:14:07.367Z,5.18
2023-05-03T10:16:37.387Z,6.20
2023-05-03T10:19:23.268Z,5.95
2023-05-03T10:22:07.050Z,6.15
2023-05-03T10:24:38.053Z,3.60
2023-05-03T10:27:08.624Z,4.68
2023-05-03T10:29:36.032Z,4.50
2023-05-03T10:32:06.378Z,4.10
2023-05-03T10:34:34.328Z,5.78
2023-05-03T10:37:19.282Z,4.90
2023-05-03T10:39:46.716Z,7.07
2023-05-03T10:42:13.811Z,6.60
2023-05-03T10:44:50.170Z,5.65
2023-05-03T10:47:18.560Z,4.97
2023-05-03T10:49:45.613Z,5.18
2023-05-03T10:52:43.472Z,6.13
2023-05-03T10:55:13.884Z,6.78
2023-05-03T10:57:42.797Z,6.47
2023-05-03T11:00:22.691Z,5.55
2023-05-03T11:03:02.005Z,5.38
2023-05-03T11:05:29.318Z,6.13
2023-05-03T11:08:19.146Z,6.47
2023-05-03T11:10:46.756Z,4.95
2023-05-03T11:13:13.928Z,5.75
2023-05-03T11:15:40.756Z,5.35
2023-05-03T11:18:08.413Z,7.30
2023-05-03T11:20:36.045Z,7.53
2023-05-03T11:23:03.952Z,5.57
2023-05-03T11:25:30.999Z,6.03
2023-05-03T11:27:58.175Z,5.60
2023-05-03T11:30:24.968Z,4.82
2023-05-03T11:32:52.337Z,5.80
2023-05-03T11:35:19.857Z,6.53
2023-05-03T11:37:47.463Z,4.43
2023-05-03T11:40:16.839Z,4.65
2023-05-03T11:42:54.818Z,7.43
2023-05-03T11:45:25.873Z,5.10
2023-05-03T11:47:53.092Z,7.25
2023-05-03T11:50:26.783Z,4.68
2023-05-03T11:52:53.850Z,3.88
2023-05-03T11:55:21.618Z,3.75
2023-05-03T11:57:48.648Z,8.13
2023-05-03T12:00:17.596Z,5.85
2023-05-03T12:02:47.991Z,3.58
2023-05-03T12:05:14.986Z,3.50
2023-05-03T12:07:43.041Z,4.57
2023-05-03T12:10:21.564Z,4.35
2023-05-03T12:12:57.585Z,4.43
2023-05-03T12:15:30.282Z,5.75
2023-05-03T12:18:00.082Z,6.80
2023-05-03T12:23:04.165Z,4.82
2023-05-03T12:25:33.953Z,7.05
2023-05-03T12:28:17.894Z,4.05
2023-05-03T12:30:46.475Z,3.67
2023-05-03T12:33:15.971Z,4.32
2023-05-03T12:35:46.685Z,4.53
2023-05-03T12:38:16.537Z,5.22
2023-05-03T12:40:45.540Z,3.95
2023-05-03T12:43:12.893Z,3.88
2023-05-03T12:45:40.874Z,5.63
2023-05-03T12:48:09.136Z,4.97
2023-05-03T12:50:38.883Z,6.82
2023-05-03T12:53:09.493Z,6.40
2023-05-03T12:55:43.252Z,6.53
2023-05-03T13:01:02.942Z,5.65
2023-05-03T13:03:33.116Z,4.90
2023-05-03T13:06:01.110Z,5.22
2023-05-03T13:08:34.860Z,6.47
2023-05-03T13:11:02.458Z,4.15
2023-05-03T13:13:29.752Z,5.50
2023-05-03T13:15:56.577Z,3.60
2023-05-03T13:18:23.768Z,4.95
2023-05-03T13:20:51.775Z,3.63
2023-05-03T13:23:18.864Z,3.05
2023-05-03T13:25:46.404Z,4.00
2023-05-03T13:28:13.498Z,3.28
2023-05-03T13:30:40.215Z,3.13
2023-05-03T13:33:08.292Z,3.42
2023-05-03T13:35:35.056Z,2.92
2023-05-03T13:38:02.382Z,4.47
2023-05-03T13:40:29.315Z,3.90
2023-05-03T13:42:56.361Z,4.13
2023-05-03T13:45:23.144Z,4.70
2023-05-03T13:50:19.877Z,2.45
2023-05-03T13:52:46.926Z,2.92
2023-05-03T13:55:13.713Z,2.60
2023-05-03T13:57:41.057Z,3.78
2023-05-03T14:00:08.679Z,3.15
2023-05-03T14:02:35.880Z,4.45
2023-05-03T14:05:03.429Z,1.83
2023-05-03T14:07:30.595Z,3.40
2023-05-03T14:09:57.706Z,3.08
2023-05-03T14:12:26.537Z,2.60
2023-05-03T14:14:54.073Z,3.80
2023-05-03T14:17:21.711Z,2.38
2023-05-03T14:19:48.632Z,2.35
2023-05-03T14:22:16.004Z,3.60
2023-05-03T14:24:44.338Z,1.98
2023-05-03T14:27:12.930Z,2.10
2023-05-03T14:29:39.878Z,2.40
2023-05-03T14:32:06.953Z,2.38
2023-05-03T14:34:33.761Z,3.40
2023-05-03T14:37:00.870Z,3.53
2023-05-03T14:39:27.935Z,2.70
2023-05-03T14:41:56.474Z,2.53
2023-05-03T14:44:23.434Z,3.55
2023-05-03T14:46:51.122Z,3.10
2023-05-03T14:49:18.230Z,2.17
2023-05-03T14:51:45.909Z,2.58
2023-05-03T14:54:13.111Z,2.53
2023-05-03T14:56:40.161Z,1.98
2023-05-03T14:59:07.162Z,2.67
2023-05-03T15:01:34.295Z,2.90
2023-05-03T15:04:01.206Z,3.30
2023-05-03T15:06:30.880Z,1.70
2023-05-03T15:08:59.631Z,2.25
2023-05-03T15:11:27.927Z,1.90
2023-05-03T15:13:54.876Z,3.72
2023-05-03T15:16:22.053Z,2.30
2023-05-03T15:18:48.963Z,1.73
2023-05-03T15:21:18.876Z,2.55
2023-05-03T15:23:47.208Z,3.35
2023-05-03T15:26:14.294Z,3.03
2023-05-03T15:28:41.141Z,2.58
2023-05-03T15:31:08.276Z,2.83
2023-05-03T15:33:44.674Z,1.70
2023-05-03T15:36:12.560Z,1.58
2023-05-03T15:38:41.161Z,1.50
2023-05-03T15:41:08.408Z,2.35
2023-05-03T15:43:35.252Z,1.77
2023-05-03T15:46:02.436Z,1.55
2023-05-03T15:48:29.234Z,2.38
2023-05-03T15:50:56.251Z,1.75
2023-05-03T15:53:22.971Z,2.17
2023-05-03T15:55:50.046Z,3.67
2023-05-03T15:58:18.926Z,1.30
2023-05-03T16:00:46.893Z,2.60
2023-05-03T16:03:13.705Z,2.67
2023-05-03T16:05:40.846Z,1.88
2023-05-03T16:08:08.275Z,2.30
2023-05-03T16:10:35.406Z,2.63
2023-05-03T16:13:02.446Z,1.75
2023-05-03T16:15:29.829Z,1.85
2023-05-03T16:17:56.966Z,2.13
2023-05-03T16:20:24.074Z,2.60
2023-05-03T16:22:52.649Z,3.42
2023-05-03T16:25:19.949Z,1.98
2023-05-03T16:27:46.757Z,3.53
2023-05-03T16:30:14.459Z,3.72
2023-05-03T16:32:42.822Z,2.90
2023-05-03T16:35:10.105Z,3.17
2023-05-03T16:37:37.782Z,3.10
2023-05-03T16:40:10.610Z,2.30
2023-05-03T16:42:41.548Z,2.40
2023-05-03T16:45:10.625Z,3.47
2023-05-03T16:47:37.978Z,3.58
2023-05-03T16:50:08.653Z,2.88
2023-05-03T16:52:42.640Z,2.70
2023-05-03T16:55:10.927Z,3.93
2023-05-03T16:57:38.188Z,3.72
2023-05-03T17:00:09.311Z,2.58
2023-05-03T17:02:37.479Z,2.70
2023-05-03T17:05:08.276Z,2.17
2023-05-03T17:07:35.709Z,2.45
2023-05-03T17:10:03.593Z,2.92
2023-05-03T17:12:31.178Z,2.20
2023-05-03T17:14:58.437Z,2.95
2023-05-03T17:17:25.265Z,2.30
2023-05-03T17:19:52.685Z,5.13
2023-05-03T17:22:20.229Z,3.47
2023-05-03T17:24:47.372Z,4.25
2023-05-03T17:27:15.417Z,1.63
2023-05-03T17:29:42.965Z,3.95
2023-05-03T17:32:09.780Z,1.95
2023-05-03T17:34:36.920Z,3.60
2023-05-03T17:37:03.774Z,4.47
2023-05-03T17:39:30.930Z,4.35
2023-05-03T17:41:57.970Z,3.05
2023-05-03T17:44:26.292Z,2.13
2023-05-03T17:46:53.453Z,1.65
2023-05-03T17:49:20.612Z,3.00
2023-05-03T17:51:47.498Z,2.10
2023-05-03T17:54:14.679Z,2.20
2023-05-03T17:56:43.597Z,2.17
2023-05-03T17:59:12.133Z,2.80
2023-05-03T18:01:39.099Z,4.15
2023-05-03T18:04:06.252Z,2.47
2023-05-03T18:06:33.155Z,2.13
2023-05-03T18:09:01.357Z,4.68
2023-05-03T18:11:28.172Z,1.80
2023-05-03T18:13:55.302Z,2.42
2023-05-03T18:16:23.634Z,2.40
2023-05-03T18:18:50.837Z,4.65
2023-05-03T18:21:18.649Z,1.77
2023-05-03T18:23:46.133Z,2.22
2023-05-03T18:26:13.051Z,3.25
2023-05-03T18:28:40.256Z,3.50
2023-05-03T18:31:07.078Z,2.60
2023-05-03T18:33:40.052Z,3.58
2023-05-03T18:36:11.829Z,2.53
2023-05-03T18:38:41.933Z,3.53
2023-05-03T18:41:15.900Z,3.47
2023-05-03T18:43:43.745Z,2.77
2023-05-03T18:46:10.891Z,2.40
2023-05-03T18:48:38.753Z,2.38
2023-05-03T18:51:05.739Z,3.00
2023-05-03T18:53:34.359Z,2.30
2023-05-03T18:56:05.348Z,3.40
2023-05-03T18:58:32.622Z,2.22
2023-05-03T19:01:00.586Z,3.40
2023-05-03T19:03:29.653Z,2.58
2023-05-03T19:06:10.015Z,3.05
2023-05-03T19:08:38.690Z,4.55
2023-05-03T19:11:09.716Z,2.17
2023-05-03T19:13:37.083Z,2.25
2023-05-03T19:16:06.202Z,1.88
2023-05-03T19:18:33.418Z,2.42
2023-05-03T19:21:00.298Z,2.03
2023-05-03T19:23:27.573Z,3.15
2023-05-03T19:25:54.490Z,3.08
2023-05-03T19:28:22.271Z,2.08
2023-05-03T19:30:51.882Z,3.17
2023-05-03T19:33:19.619Z,4.13
2023-05-03T19:35:47.732Z,4.38
2023-05-03T19:38:17.482Z,2.80
2023-05-03T19:40:56.815Z,4.85
2023-05-03T19:43:23.921Z,3.47
2023-05-03T19:45:51.454Z,3.63
2023-05-03T19:48:19.682Z,3.00
2023-05-03T19:50:47.784Z,4.20
2023-05-03T19:53:14.983Z,3.75
2023-05-03T19:55:41.894Z,3.45
2023-05-03T19:58:10.368Z,2.92
2023-05-03T20:00:37.169Z,2.92
2023-05-03T20:03:05.423Z,5.68
2023-05-03T20:05:32.320Z,6.07
2023-05-03T20:07:59.445Z,3.30
2023-05-03T20:10:27.314Z,4.18
2023-05-03T20:12:54.527Z,3.75
2023-05-03T20:15:21.407Z,4.93
2023-05-03T20:17:48.583Z,6.80
2023-05-03T20:20:16.472Z,6.03
2023-05-03T20:22:43.629Z,5.35
2023-05-03T20:25:10.507Z,5.03
2023-05-03T20:27:37.687Z,4.57
2023-05-03T20:30:06.082Z,4.45
2023-05-03T20:32:36.382Z,5.05
2023-05-03T20:35:07.158Z,4.43
2023-05-03T20:37:35.804Z,5.25
2023-05-03T20:40:03.493Z,4.90
2023-05-03T20:42:30.805Z,4.47
2023-05-03T20:44:57.629Z,4.45
2023-05-03T20:47:24.878Z,5.93
2023-05-03T20:49:51.685Z,4.93
2023-05-03T20:52:18.835Z,5.60
2023-05-03T20:54:46.567Z,4.68
2023-05-03T20:57:13.872Z,5.15
2023-05-03T20:59:41.764Z,9.07
2023-05-03T21:02:08.902Z,5.93
2023-05-03T21:04:36.513Z,4.10
2023-05-03T21:07:03.762Z,6.68
2023-05-03T21:09:31.013Z,6.85
2023-05-03T21:11:58.152Z,7.35
2023-05-03T21:14:25.575Z,4.93
2023-05-03T21:16:52.769Z,5.68
2023-05-03T21:19:19.625Z,6.07
2023-05-03T21:21:46.711Z,5.28
2023-05-03T21:24:13.483Z,6.53
2023-05-03T21:26:40.544Z,9.20
2023-05-03T21:29:07.354Z,8.90
2023-05-03T21:31:34.536Z,8.80
2023-05-03T21:34:03.219Z,10.32
2023-05-03T21:36:30.477Z,8.57
2023-05-03T21:38:57.994Z,8.25
2023-05-03T21:41:25.039Z,10.07
2023-05-03T21:43:51.776Z,8.70
2023-05-03T21:46:18.957Z,7.47
2023-05-03T21:48:45.770Z,9.93
2023-05-03T21:51:22.055Z,8.35
2023-05-03T21:53:49.215Z,8.98
2023-05-03T21:56:16.564Z,8.40
2023-05-03T21:58:44.498Z,9.05
2023-05-03T22:01:11.864Z,5.93
2023-05-03T22:03:40.070Z,7.45
2023-05-03T22:06:08.464Z,8.57
2023-05-03T22:08:35.246Z,8.05
2023-05-03T22:11:06.977Z,7.40
2023-05-03T22:13:34.516Z,10.13
2023-05-03T22:16:06.378Z,8.07
2023-05-03T22:18:33.529Z,8.85
2023-05-03T22:21:03.855Z,7.03
2023-05-03T22:23:31.055Z,6.85
2023-05-03T22:25:58.516Z,7.72
2023-05-03T22:28:25.289Z,8.13
2023-05-03T22:30:52.384Z,8.25
2023-05-03T22:33:19.100Z,8.48
2023-05-03T22:35:46.475Z,6.97
2023-05-03T22:38:13.226Z,8.32
2023-05-03T22:40:40.228Z,10.50
2023-05-03T22:43:07.164Z,6.75
2023-05-03T22:45:34.534Z,9.27
2023-05-03T22:48:01.325Z,7.25
2023-05-03T22:50:28.357Z,8.15
2023-05-03T22:52:55.109Z,7.15
2023-05-03T22:55:22.126Z,8.48
2023-05-03T22:57:48.834Z,7.93
2023-05-03T23:00:17.650Z,9.07
2023-05-03T23:02:44.504Z,8.02
2023-05-03T23:05:12.152Z,7.45
2023-05-03T23:07:38.929Z,6.82
2023-05-03T23:10:07.432Z,8.05
2023-05-03T23:12:34.521Z,8.18
2023-05-03T23:15:01.601Z,7.93
2023-05-03T23:17:28.447Z,8.25
2023-05-03T23:19:55.515Z,9.82
2023-05-03T23:22:22.259Z,9.05
2023-05-03T23:24:49.258Z,8.25
2023-05-03T23:27:16.012Z,9.45
2023-05-03T23:29:43.426Z,7.95
2023-05-03T23:32:10.451Z,12.57
2023-05-03T23:34:37.818Z,10.18
2023-05-03T23:37:04.538Z,7.63
2023-05-03T23:39:31.632Z,11.40
2023-05-03T23:41:58.882Z,9.77
2023-05-03T23:44:34.694Z,8.70
2023-05-03T23:47:09.105Z,10.13
2023-05-03T23:49:36.210Z,11.43
2023-05-03T23:52:03.210Z,13.07
2023-05-03T23:54:30.248Z,10.75
2023-05-03T23:56:56.952Z,10.23
2023-05-03T23:59:24.036Z,10.73
